Time;durP1;ratioP1;P1;durP2;ratioP2;P2;SDS_P1;SDS_P2;PMS_P1;PMS_P2;Temp;Humidity;BMP_temperature;BMP_pressure;BME280_temperature;BME280_humidity;BME280_pressure;Samples;Min_cycle;Max_cycle;Signal;HPM_P1;HPM_P2
2022/10/19 00:01:20;;;;;;;19.35;11.65;;;13.20;99.90;;;;;;5090168;28;20024;-60
2022/10/19 00:03:48;;;;;;;24.40;12.73;;;13.20;99.90;;;;;;5090038;28;20032;-59
2022/10/19 00:06:18;;;;;;;20.55;11.73;;;13.10;99.90;;;;;;5089665;28;20028;-60
2022/10/19 00:08:44;;;;;;;23.05;12.13;;;13.10;99.90;;;;;;5089776;28;20067;-59
2022/10/19 00:11:10;;;;;;;25.77;12.88;;;13.20;99.90;;;;;;5089506;28;20025;-60
2022/10/19 00:13:37;;;;;;;26.20;14.50;;;13.20;99.90;;;;;;5089797;28;20102;-59
2022/10/19 00:16:11;;;;;;;24.15;13.27;;;13.20;99.90;;;;;;5089894;28;20028;-58
2022/10/19 00:18:37;;;;;;;19.63;12.70;;;13.20;99.90;;;;;;5089503;28;20506;-60
2022/10/19 00:21:05;;;;;;;153.13;100.03;;;13.20;99.90;;;;;;5089650;28;20029;-60
2022/10/19 00:23:31;;;;;;;71.00;49.42;;;13.20;99.90;;;;;;5089316;28;20108;-59
2022/10/19 00:25:57;;;;;;;32.47;23.40;;;13.20;99.90;;;;;;5089432;28;20077;-60
2022/10/19 00:28:22;;;;;;;22.33;15.98;;;13.20;99.90;;;;;;5089571;28;20044;-59
2022/10/19 00:30:48;;;;;;;19.02;13.23;;;13.20;99.90;;;;;;5089811;28;20487;-59
2022/10/19 00:33:19;;;;;;;19.63;14.30;;;13.10;99.90;;;;;;5089200;28;20486;-58
2022/10/19 00:35:47;;;;;;;19.23;12.48;;;13.10;99.90;;;;;;5089890;28;20032;-58
2022/10/19 00:38:13;;;;;;;22.88;12.90;;;13.20;99.90;;;;;;5089292;28;20058;-56
2022/10/19 00:40:40;;;;;;;17.33;12.30;;;13.00;99.90;;;;;;5089174;28;20051;-57
2022/10/19 00:43:12;;;;;;;18.27;11.63;;;13.00;99.90;;;;;;5089233;28;20032;-60
2022/10/19 00:45:37;;;;;;;19.15;12.20;;;13.00;99.90;;;;;;5070240;28;20036;-60
2022/10/19 00:48:03;;;;;;;25.13;14.40;;;12.90;99.90;;;;;;5068970;28;20032;-60
2022/10/19 00:50:29;;;;;;;22.88;14.48;;;13.10;99.90;;;;;;5068873;28;20036;-60
2022/10/19 00:52:54;;;;;;;25.58;14.30;;;13.00;99.90;;;;;;5069000;28;20649;-60
2022/10/19 00:55:20;;;;;;;26.02;15.43;;;12.90;99.90;;;;;;5070477;28;20145;-60
2022/10/19 00:57:46;;;;;;;24.33;16.27;;;12.90;99.90;;;;;;5072717;28;20340;-59
2022/10/19 01:00:12;;;;;;;23.45;17.27;;;12.90;99.90;;;;;;5072690;28;20016;-57
2022/10/19 01:02:38;;;;;;;34.45;20.20;;;13.00;99.90;;;;;;5072554;28;20027;-57
2022/10/19 01:05:04;;;;;;;33.50;19.13;;;12.90;99.90;;;;;;5072555;28;20032;-58
2022/10/19 01:07:30;;;;;;;31.17;19.55;;;12.90;99.90;;;;;;5072541;28;20013;-58
2022/10/19 01:09:56;;;;;;;25.35;17.80;;;12.80;99.90;;;;;;5072543;28;20476;-59
2022/10/19 01:12:41;;;;;;;28.15;17.23;;;12.70;99.90;;;;;;5071135;28;20471;-59
2022/10/19 01:15:36;;;;;;;31.65;17.70;;;12.80;99.90;;;;;;5072530;28;20039;-62
2022/10/19 01:18:19;;;;;;;32.65;18.80;;;12.80;99.90;;;;;;5055971;28;20094;-60
2022/10/19 01:21:16;;;;;;;33.88;19.10;;;12.90;99.90;;;;;;5072318;28;20043;-60
2022/10/19 01:23:45;;;;;;;29.95;18.75;;;12.90;99.90;;;;;;5068875;28;20035;-58
2022/10/19 01:26:22;;;;;;;30.92;17.38;;;12.90;99.90;;;;;;5072143;28;20029;-58
2022/10/19 01:28:56;;;;;;;27.98;16.95;;;12.80;99.90;;;;;;5072092;28;20547;-59
2022/10/19 01:31:36;;;;;;;32.85;18.40;;;12.70;99.90;;;;;;5072086;28;20028;-58
2022/10/19 01:34:22;;;;;;;35.70;20.63;;;12.80;99.90;;;;;;5072003;28;20024;-56
2022/10/19 01:37:09;;;;;;;39.67;19.95;;;12.80;99.90;;;;;;5070660;28;20046;-59
2022/10/19 01:39:48;;;;;;;42.15;20.23;;;12.70;99.90;;;;;;5072108;28;20035;-57
2022/10/19 01:42:23;;;;;;;38.90;20.52;;;12.70;99.90;;;;;;5070541;28;20108;-59
2022/10/19 01:44:51;;;;;;;47.50;24.92;;;12.70;99.90;;;;;;5078141;28;20025;-58
2022/10/19 01:47:19;;;;;;;;;;;12.70;99.90;;;;;;5078314;28;20975;-58
2022/10/19 01:49:54;;;;;;;48.38;24.58;;;12.80;99.90;;;;;;5069325;28;19916;-59
2022/10/19 01:52:22;;;;;;;44.78;23.00;;;12.80;99.90;;;;;;5092020;28;20032;-58
2022/10/19 01:54:52;;;;;;;49.47;25.42;;;12.90;99.90;;;;;;5092254;28;20028;-58
2022/10/19 01:57:27;;;;;;;43.03;23.13;;;12.90;99.90;;;;;;5090317;28;20299;-58
2022/10/19 01:59:54;;;;;;;42.47;24.52;;;12.90;99.90;;;;;;5089951;28;20449;-59
2022/10/19 02:02:21;;;;;;;43.03;22.98;;;13.00;99.90;;;;;;5090028;28;20024;-57
2022/10/19 02:04:48;;;;;;;37.75;21.65;;;13.00;99.90;;;;;;5092069;28;20123;-60
2022/10/19 02:07:15;;;;;;;;;;;13.10;99.90;;;;;;5092336;28;20425;-59
2022/10/19 02:09:40;;;;;;;30.80;18.98;;;13.10;99.90;;;;;;5090026;28;20282;-59
2022/10/19 02:12:09;;;;;;;31.40;20.83;;;13.20;99.90;;;;;;5091816;28;20020;-60
2022/10/19 02:14:46;;;;;;;29.17;18.45;;;13.10;99.90;;;;;;5091546;28;20055;-59
2022/10/19 02:17:16;;;;;;;31.63;20.50;;;13.20;99.90;;;;;;5091616;28;20023;-60
2022/10/19 02:19:41;;;;;;;33.30;20.20;;;13.10;99.90;;;;;;5091485;28;20051;-58
2022/10/19 02:22:08;;;;;;;26.83;20.33;;;13.20;99.90;;;;;;5091430;28;20103;-60
2022/10/19 02:24:33;;;;;;;30.13;20.25;;;13.20;99.90;;;;;;5089980;28;20444;-58
2022/10/19 02:27:00;;;;;;;26.50;19.50;;;13.30;99.90;;;;;;5091287;28;20055;-60
2022/10/19 02:29:27;;;;;;;29.92;20.52;;;13.20;99.90;;;;;;5091305;28;20795;-58
2022/10/19 02:31:53;;;;;;;30.47;19.23;;;13.20;99.90;;;;;;5091274;28;20098;-61
2022/10/19 02:34:19;;;;;;;28.52;18.63;;;13.10;99.90;;;;;;5091193;28;20331;-60
2022/10/19 02:36:44;;;;;;;27.95;19.83;;;13.10;99.90;;;;;;5073208;28;20028;-58
2022/10/19 02:39:10;;;;;;;29.67;20.13;;;13.00;99.90;;;;;;5086430;28;20043;-59
2022/10/19 02:41:43;;;;;;;29.25;18.45;;;13.00;99.90;;;;;;5070843;28;20027;-60
2022/10/19 02:44:21;;;;;;;28.02;18.50;;;13.00;99.90;;;;;;5071122;28;20025;-57
2022/10/19 02:46:54;;;;;;;28.70;19.95;;;13.00;99.90;;;;;;5070940;28;20024;-58
2022/10/19 02:49:20;;;;;;;26.83;19.08;;;13.00;99.90;;;;;;5070474;28;20093;-58
2022/10/19 02:52:13;;;;;;;27.60;19.73;;;13.00;99.90;;;;;;5070957;28;20024;-58
2022/10/19 02:54:41;;;;;;;36.97;21.92;;;13.00;99.90;;;;;;5068387;28;20033;-59
2022/10/19 02:57:18;;;;;;;26.17;18.33;;;13.10;99.90;;;;;;5070735;28;20371;-60
2022/10/19 02:59:44;;;;;;;31.00;19.55;;;13.00;99.90;;;;;;5070489;28;20632;-61
2022/10/19 03:02:10;;;;;;;26.08;19.13;;;13.00;99.90;;;;;;5070512;28;20036;-60
2022/10/19 03:04:36;;;;;;;27.73;20.15;;;13.00;99.90;;;;;;5070406;28;20029;-60
2022/10/19 03:07:02;;;;;;;27.05;19.65;;;12.90;99.90;;;;;;5070541;28;20081;-58
2022/10/19 03:09:27;;;;;;;25.75;18.55;;;12.80;99.90;;;;;;5070572;28;20032;-59
2022/10/19 03:11:55;;;;;;;31.33;22.13;;;12.90;99.90;;;;;;5070111;28;20051;-60
2022/10/19 03:14:21;;;;;;;34.22;20.55;;;12.80;99.90;;;;;;5070289;28;20025;-57
2022/10/19 03:16:46;;;;;;;32.45;22.83;;;12.80;99.90;;;;;;5069197;28;20032;-58
2022/10/19 03:19:12;;;;;;;31.88;22.38;;;12.80;99.90;;;;;;5069505;28;20161;-61
2022/10/19 03:21:37;;;;;;;31.35;22.23;;;12.80;99.90;;;;;;5068635;28;20167;-59
2022/10/19 03:24:03;;;;;;;30.80;21.95;;;12.80;99.90;;;;;;5070207;28;20082;-59
2022/10/19 03:26:29;;;;;;;36.42;22.45;;;12.70;99.90;;;;;;5070433;28;20052;-59
2022/10/19 03:28:54;;;;;;;29.65;19.75;;;12.70;99.90;;;;;;5069712;28;20029;-59
2022/10/19 03:31:20;;;;;;;35.17;22.10;;;12.80;99.90;;;;;;5069756;28;20028;-58
2022/10/19 03:33:46;;;;;;;31.85;21.60;;;12.70;99.90;;;;;;5068551;28;20476;-57
2022/10/19 03:36:16;;;;;;;29.65;20.58;;;12.60;99.90;;;;;;5070007;28;20048;-62
2022/10/19 03:38:42;;;;;;;36.55;22.42;;;12.60;99.90;;;;;;5068518;28;20052;-59
2022/10/19 03:41:08;;;;;;;36.45;23.52;;;12.70;99.90;;;;;;5090166;28;20052;-59
2022/10/19 03:43:34;;;;;;;31.50;21.90;;;12.60;99.90;;;;;;5089929;28;20036;-60
2022/10/19 03:46:00;;;;;;;32.90;22.10;;;12.60;99.90;;;;;;5089778;28;20024;-59
2022/10/19 03:48:26;;;;;;;31.30;21.73;;;12.60;99.90;;;;;;5089808;28;20050;-58
2022/10/19 03:51:13;;;;;;;28.23;20.55;;;12.60;99.90;;;;;;5089670;28;20036;-61
2022/10/19 03:53:40;;;;;;;28.65;20.83;;;12.60;99.90;;;;;;5089848;28;20034;-60
2022/10/19 03:56:10;;;;;;;32.07;21.70;;;12.60;99.90;;;;;;5089972;28;20032;-58
2022/10/19 03:58:36;;;;;;;30.95;20.60;;;12.60;99.90;;;;;;5090091;28;20024;-58
2022/10/19 04:01:07;;;;;;;28.93;20.87;;;12.60;99.90;;;;;;5089765;28;20063;-60
2022/10/19 04:03:33;;;;;;;28.80;21.10;;;12.60;99.90;;;;;;5089854;28;20516;-60
2022/10/19 04:06:08;;;;;;;35.05;22.48;;;12.60;99.90;;;;;;5089577;28;20095;-58
2022/10/19 04:08:34;;;;;;;30.88;21.60;;;12.60;99.90;;;;;;5088554;28;20039;-61
2022/10/19 04:11:02;;;;;;;29.60;21.08;;;12.50;99.90;;;;;;5089530;28;20111;-59
2022/10/19 04:13:29;;;;;;;31.70;21.20;;;12.40;99.90;;;;;;5089868;28;20560;-58
2022/10/19 04:15:56;;;;;;;33.83;21.65;;;12.40;99.90;;;;;;5089857;28;20070;-60
2022/10/19 04:18:22;;;;;;;34.03;21.38;;;12.40;99.90;;;;;;5089477;28;20040;-57
2022/10/19 04:20:48;;;;;;;33.78;22.25;;;12.40;99.90;;;;;;5089548;28;20032;-58
2022/10/19 04:23:13;;;;;;;31.50;19.88;;;12.40;99.90;;;;;;5089706;28;20077;-58
2022/10/19 04:25:39;;;;;;;35.00;22.33;;;12.40;99.90;;;;;;5088178;28;20043;-61
2022/10/19 04:28:05;;;;;;;33.03;21.38;;;12.30;99.90;;;;;;5089674;28;20065;-60
2022/10/19 04:30:30;;;;;;;31.77;22.50;;;12.30;99.90;;;;;;5091236;28;20032;-59
2022/10/19 04:32:56;;;;;;;32.53;22.20;;;12.30;99.90;;;;;;5092456;28;20399;-60
2022/10/19 04:35:22;;;;;;;31.33;21.58;;;12.20;99.90;;;;;;5091731;28;20115;-60
2022/10/19 04:37:50;;;;;;;33.50;21.77;;;12.30;99.90;;;;;;5091830;28;20024;-57
2022/10/19 04:40:16;;;;;;;38.78;22.35;;;12.20;99.90;;;;;;5079317;28;20035;-58
2022/10/19 04:42:41;;;;;;;28.75;20.65;;;12.20;99.90;;;;;;5071627;28;20021;-59
2022/10/19 04:45:08;;;;;;;31.88;21.58;;;12.20;99.90;;;;;;5071403;28;20116;-56
2022/10/19 04:47:33;;;;;;;35.42;21.73;;;12.20;99.90;;;;;;5070376;28;20421;-59
2022/10/19 04:50:05;;;;;;;33.33;21.17;;;12.10;99.90;;;;;;5072364;28;20090;-58
2022/10/19 04:52:34;;;;;;;31.08;20.90;;;12.00;99.90;;;;;;5071835;28;20427;-59
2022/10/19 04:54:59;;;;;;;29.85;20.15;;;12.00;99.90;;;;;;5069784;28;20017;-59
2022/10/19 04:57:25;;;;;;;34.05;19.77;;;12.00;99.90;;;;;;5071806;28;20031;-59
2022/10/19 04:59:51;;;;;;;27.67;19.50;;;12.00;99.90;;;;;;5071325;28;20012;-59
2022/10/19 05:02:17;;;;;;;29.20;20.45;;;11.90;99.90;;;;;;5070810;28;20024;-59
2022/10/19 05:04:42;;;;;;;28.00;19.27;;;11.90;99.90;;;;;;5070120;28;20059;-59
2022/10/19 05:07:08;;;;;;;33.63;21.65;;;11.90;99.90;;;;;;5074072;28;20596;-60
2022/10/19 05:09:34;;;;;;;102.53;64.60;;;11.80;99.90;;;;;;5081797;28;20135;-58
2022/10/19 05:11:59;;;;;;;39.83;26.15;;;11.60;99.90;;;;;;5082155;28;20031;-60
2022/10/19 05:14:25;;;;;;;36.70;22.80;;;11.60;99.90;;;;;;5080319;28;20464;-61
2022/10/19 05:16:51;;;;;;;42.65;28.98;;;11.60;99.90;;;;;;5082921;28;20475;-60
2022/10/19 05:19:16;;;;;;;45.47;31.33;;;11.60;99.90;;;;;;5081281;28;20121;-59
2022/10/19 05:21:42;;;;;;;43.67;31.98;;;11.50;99.90;;;;;;5079842;28;20119;-59
2022/10/19 05:24:11;;;;;;;45.25;27.48;;;11.50;99.90;;;;;;5085748;28;20032;-60
2022/10/19 05:26:36;;;;;;;42.70;26.05;;;11.50;99.90;;;;;;5080323;28;20016;-60
2022/10/19 05:29:03;;;;;;;37.67;24.23;;;11.50;99.90;;;;;;5081939;28;20047;-59
2022/10/19 05:31:31;;;;;;;39.50;25.27;;;11.40;99.90;;;;;;5080973;28;20025;-59
2022/10/19 05:33:57;;;;;;;32.95;21.48;;;11.50;99.90;;;;;;5079527;28;20028;-58
2022/10/19 05:36:26;;;;;;;35.53;21.83;;;11.40;99.90;;;;;;5080800;28;20028;-58
2022/10/19 05:38:53;;;;;;;31.65;18.98;;;11.50;99.90;;;;;;5081054;28;20059;-59
2022/10/19 05:41:21;;;;;;;31.63;19.05;;;11.50;99.90;;;;;;5080761;28;20103;-59
2022/10/19 05:43:50;;;;;;;32.60;21.58;;;11.30;99.90;;;;;;5080920;28;20032;-59
2022/10/19 05:46:17;;;;;;;31.80;20.67;;;11.30;99.90;;;;;;5079808;28;20537;-60
2022/10/19 05:48:43;;;;;;;35.03;22.45;;;11.40;99.90;;;;;;5081265;28;20126;-60
2022/10/19 05:51:11;;;;;;;36.08;21.95;;;11.50;99.90;;;;;;5079054;28;20537;-60
2022/10/19 05:53:38;;;;;;;37.58;21.40;;;11.50;99.90;;;;;;5080722;28;20077;-61
2022/10/19 05:56:05;;;;;;;38.75;23.17;;;11.40;99.90;;;;;;5079683;28;20379;-58
2022/10/19 05:58:31;;;;;;;41.60;25.73;;;11.40;99.90;;;;;;5073036;28;20051;-58
2022/10/19 06:00:58;;;;;;;44.35;27.52;;;11.30;99.90;;;;;;5075971;28;20059;-58
2022/10/19 06:03:25;;;;;;;45.45;27.08;;;11.30;99.90;;;;;;5080034;28;20055;-59
2022/10/19 06:05:52;;;;;;;47.10;26.63;;;11.20;99.90;;;;;;5089782;28;20574;-58
2022/10/19 06:08:19;;;;;;;42.38;25.55;;;11.20;99.90;;;;;;5079221;28;21073;-58
2022/10/19 06:10:46;;;;;;;41.80;25.35;;;11.20;99.90;;;;;;5079259;28;20031;-58
2022/10/19 06:13:13;;;;;;;39.63;24.60;;;11.30;99.90;;;;;;5076593;28;20016;-57
2022/10/19 06:15:39;;;;;;;45.45;27.00;;;11.30;99.90;;;;;;5074843;28;20037;-57
2022/10/19 06:18:10;;;;;;;38.97;25.80;;;11.40;99.90;;;;;;5079035;28;20031;-58
2022/10/19 06:20:37;;;;;;;37.58;24.10;;;11.30;99.90;;;;;;5089598;28;20031;-60
2022/10/19 06:23:04;;;;;;;141.20;85.85;;;11.30;99.90;;;;;;5080585;28;20024;-60
2022/10/19 06:25:31;;;;;;;58.53;39.53;;;11.50;99.90;;;;;;5079271;28;20679;-57
2022/10/19 06:27:58;;;;;;;38.13;23.08;;;11.50;99.90;;;;;;5078751;28;20318;-59
2022/10/19 06:30:24;;;;;;;42.80;25.27;;;11.60;99.90;;;;;;5079927;28;20477;-60
2022/10/19 06:32:50;;;;;;;40.08;23.50;;;11.60;99.90;;;;;;5078277;28;20037;-60
2022/10/19 06:35:16;;;;;;;44.88;24.45;;;11.70;99.90;;;;;;5078671;28;20032;-60
2022/10/19 06:37:42;;;;;;;39.65;23.42;;;11.70;99.90;;;;;;5091237;28;20077;-58
2022/10/19 06:40:08;;;;;;;33.85;21.70;;;11.80;99.90;;;;;;5091161;28;20016;-60
2022/10/19 06:42:37;;;;;;;31.90;20.95;;;11.70;99.90;;;;;;5079333;28;20063;-60
2022/10/19 06:45:05;;;;;;;32.85;21.10;;;11.70;99.90;;;;;;5070590;28;20028;-58
2022/10/19 06:47:31;;;;;;;36.85;21.40;;;11.70;99.90;;;;;;5070532;28;20016;-56
2022/10/19 06:49:57;;;;;;;36.55;22.55;;;11.70;99.90;;;;;;5070393;28;20024;-58
2022/10/19 06:52:23;;;;;;;36.40;20.83;;;11.70;99.90;;;;;;5069675;28;20388;-59
2022/10/19 06:54:49;;;;;;;37.17;22.10;;;11.70;99.90;;;;;;5086443;28;20035;-58
2022/10/19 06:57:14;;;;;;;35.42;21.58;;;11.70;99.90;;;;;;5089482;28;20545;-58
2022/10/19 06:59:40;;;;;;;33.88;19.90;;;11.70;99.90;;;;;;5087760;28;20021;-60
2022/10/19 07:02:05;;;;;;;45.33;31.20;;;11.80;99.90;;;;;;5089239;28;20683;-60
2022/10/19 07:04:31;;;;;;;37.78;23.65;;;11.80;99.90;;;;;;5082215;28;20383;-59
2022/10/19 07:06:57;;;;;;;45.38;26.83;;;11.90;99.90;;;;;;5077390;28;20170;-59
2022/10/19 07:09:22;;;;;;;41.75;25.20;;;11.90;99.90;;;;;;5078780;28;20043;-57
2022/10/19 07:11:48;;;;;;;37.78;22.33;;;11.90;99.90;;;;;;5080368;28;20720;-57
2022/10/19 07:14:14;;;;;;;44.42;24.25;;;11.80;99.90;;;;;;5052257;28;20403;-58
2022/10/19 07:16:40;;;;;;;42.30;23.33;;;11.80;99.90;;;;;;5089069;28;20028;-58
2022/10/19 07:19:05;;;;;;;33.90;22.80;;;11.80;99.90;;;;;;5088492;28;20043;-60
2022/10/19 07:21:31;;;;;;;41.38;24.17;;;11.90;99.90;;;;;;5090263;28;20156;-60
2022/10/19 07:23:57;;;;;;;39.50;23.08;;;11.90;99.90;;;;;;5090466;28;20066;-59
2022/10/19 07:26:26;;;;;;;36.47;24.15;;;12.00;99.90;;;;;;5088746;28;20028;-58
2022/10/19 07:28:56;;;;;;;42.22;25.02;;;12.00;99.90;;;;;;5070181;28;20035;-57
2022/10/19 07:31:23;;;;;;;41.13;24.65;;;12.00;99.90;;;;;;5069810;28;20047;-56
2022/10/19 07:33:54;;;;;;;40.55;25.52;;;12.00;99.90;;;;;;5069853;28;20028;-56
2022/10/19 07:36:20;;;;;;;39.53;24.02;;;11.90;99.90;;;;;;5069833;28;20119;-57
2022/10/19 07:38:46;;;;;;;43.10;23.90;;;11.90;99.90;;;;;;5068692;28;20055;-59
2022/10/19 07:41:15;;;;;;;32.85;20.27;;;12.00;99.90;;;;;;5067865;28;20083;-57
2022/10/19 07:43:42;;;;;;;39.22;23.80;;;12.00;99.90;;;;;;5084749;28;20104;-55
2022/10/19 07:46:11;;;;;;;38.15;23.85;;;12.20;99.90;;;;;;5088107;28;20432;-58
2022/10/19 07:48:37;;;;;;;30.55;19.88;;;12.40;99.90;;;;;;5088205;28;20433;-59
2022/10/19 07:51:05;;;;;;;33.90;19.00;;;12.60;99.90;;;;;;5088181;28;20532;-60
2022/10/19 07:53:31;;;;;;;30.52;18.92;;;12.60;99.90;;;;;;5089415;28;20028;-59
2022/10/19 07:56:12;;;;;;;31.20;17.30;;;12.60;99.90;;;;;;5089986;28;20020;-59
2022/10/19 07:58:39;;;;;;;32.15;18.52;;;12.60;99.90;;;;;;5089870;28;20021;-60
2022/10/19 08:01:10;;;;;;;31.27;18.13;;;12.40;99.90;;;;;;5089430;28;20030;-58
2022/10/19 08:03:36;;;;;;;30.58;18.88;;;12.40;99.90;;;;;;5087727;28;20029;-59
2022/10/19 08:06:04;;;;;;;30.77;17.27;;;12.40;99.90;;;;;;5087800;28;20127;-58
2022/10/19 08:08:31;;;;;;;26.80;15.13;;;12.40;99.90;;;;;;5089102;28;20502;-59
2022/10/19 08:10:56;;;;;;;26.83;13.95;;;12.30;99.90;;;;;;5088701;28;20115;-57
2022/10/19 08:13:23;;;;;;;25.70;11.40;;;12.20;99.90;;;;;;5087407;28;20103;-60
2022/10/19 08:15:49;;;;;;;21.55;9.82;;;12.30;99.90;;;;;;5087365;28;20044;-59
2022/10/19 08:18:17;;;;;;;21.88;9.70;;;12.30;99.90;;;;;;5070387;28;20071;-58
2022/10/19 08:20:43;;;;;;;22.13;10.52;;;12.40;99.90;;;;;;5068072;28;20502;-58
2022/10/19 08:23:09;;;;;;;25.83;9.98;;;12.40;99.90;;;;;;5083027;28;20020;-59
2022/10/19 08:25:36;;;;;;;24.85;9.63;;;12.40;99.90;;;;;;5087697;28;20024;-58
2022/10/19 08:28:02;;;;;;;15.47;7.20;;;12.40;99.90;;;;;;5084699;28;20566;-58
2022/10/19 08:30:28;;;;;;;15.98;7.28;;;12.30;99.90;;;;;;5073963;28;20271;-57
2022/10/19 08:32:53;;;;;;;13.75;6.53;;;12.30;99.90;;;;;;5073371;28;20155;-57
2022/10/19 08:35:19;;;;;;;15.60;6.38;;;12.40;99.90;;;;;;5067128;28;20033;-55
2022/10/19 08:37:45;;;;;;;10.45;4.38;;;12.50;99.90;;;;;;5067223;28;20028;-57
2022/10/19 08:40:24;;;;;;;9.25;4.03;;;12.60;99.90;;;;;;5067145;28;20734;-56
2022/10/19 08:43:12;;;;;;;20.42;4.53;;;12.70;99.90;;;;;;5069086;28;20024;-58
2022/10/19 08:45:40;;;;;;;11.07;3.75;;;12.80;99.90;;;;;;5069224;28;20020;-57
2022/10/19 08:48:21;;;;;;;7.15;3.20;;;12.70;99.90;;;;;;5069309;28;20025;-58
2022/10/19 08:50:47;;;;;;;11.82;4.07;;;12.80;99.90;;;;;;5077786;28;20043;-57
2022/10/19 08:53:36;;;;;;;9.02;4.18;;;12.80;99.90;;;;;;5089388;28;20021;-58
2022/10/19 08:56:14;;;;;;;12.65;3.75;;;12.80;99.90;;;;;;5089423;28;20020;-58
2022/10/19 08:58:49;;;;;;;;;;;12.70;99.90;;;;;;5089747;28;20111;-57
2022/10/19 09:01:22;;;;;;;11.82;4.10;;;12.60;99.90;;;;;;5089461;28;19904;-58
2022/10/19 09:04:11;;;;;;;17.80;3.63;;;12.60;99.90;;;;;;5089650;28;20209;-57
2022/10/19 09:06:56;;;;;;;9.93;3.50;;;12.50;99.90;;;;;;5088605;28;20085;-56
2022/10/19 09:09:22;;;;;;;12.63;5.00;;;12.40;99.90;;;;;;5089227;28;20028;-56
2022/10/19 09:11:51;;;;;;;9.82;3.40;;;12.40;99.90;;;;;;5089353;28;20044;-55
2022/10/19 09:14:35;;;;;;;10.80;3.97;;;12.30;99.90;;;;;;5089377;28;20024;-57
2022/10/19 09:17:05;;;;;;;10.52;5.10;;;12.50;99.90;;;;;;5087865;28;20032;-56
2022/10/19 09:19:31;;;;;;;8.85;4.72;;;12.60;99.90;;;;;;5072368;28;20052;-57
2022/10/19 09:22:03;;;;;;;12.88;5.20;;;12.70;99.90;;;;;;5072505;28;20107;-57
2022/10/19 09:24:42;;;;;;;11.60;5.07;;;12.80;99.90;;;;;;5072583;28;20509;-57
2022/10/19 09:27:17;;;;;;;8.63;4.30;;;12.70;99.90;;;;;;5072363;28;20077;-57
2022/10/19 09:30:04;;;;;;;8.40;3.10;;;12.80;99.90;;;;;;5072352;28;20498;-55
2022/10/19 09:32:35;;;;;;;8.43;3.20;;;12.70;99.90;;;;;;5072564;28;20095;-56
2022/10/19 09:35:15;;;;;;;11.70;4.72;;;12.70;99.90;;;;;;5072227;28;20041;-56
2022/10/19 09:37:45;;;;;;;8.43;3.53;;;12.60;99.90;;;;;;5085057;28;20365;-56
2022/10/19 09:40:17;;;;;;;12.27;3.72;;;12.60;99.90;;;;;;5092534;28;20417;-56
2022/10/19 09:42:43;;;;;;;9.30;3.60;;;12.50;99.90;;;;;;5092342;28;20484;-56
2022/10/19 09:45:39;;;;;;;9.82;3.80;;;12.50;99.90;;;;;;5092554;28;20062;-57
2022/10/19 09:48:20;;;;;;;8.48;3.97;;;12.50;99.90;;;;;;5080604;28;20076;-57
2022/10/19 09:50:54;;;;;;;18.27;4.78;;;12.40;99.90;;;;;;5091395;28;20035;-56
2022/10/19 09:53:20;;;;;;;16.60;3.72;;;12.40;99.90;;;;;;5091551;28;20024;-55
2022/10/19 09:56:07;;;;;;;11.07;3.05;;;12.40;99.90;;;;;;5091225;28;20417;-56
2022/10/19 09:58:34;;;;;;;7.05;3.17;;;12.40;99.90;;;;;;5090274;28;20061;-57
2022/10/19 10:01:01;;;;;;;11.57;3.30;;;12.40;99.90;;;;;;5091509;28;20083;-56
2022/10/19 10:03:27;;;;;;;;;;;12.40;99.90;;;;;;5091678;28;20059;-56
2022/10/19 10:05:55;;;;;;;11.05;4.97;;;12.40;99.90;;;;;;5091035;28;19956;-57
2022/10/19 10:08:25;;;;;;;14.73;3.45;;;12.40;99.90;;;;;;5091011;28;20036;-56
2022/10/19 10:11:03;;;;;;;7.20;2.38;;;12.40;99.90;;;;;;5091016;28;20027;-57
2022/10/19 10:13:28;;;;;;;;;;;12.40;99.90;;;;;;5091695;28;20086;-56
2022/10/19 10:16:00;;;;;;;8.90;2.88;;;12.30;99.90;;;;;;5091003;28;19912;-56
2022/10/19 10:18:27;;;;;;;6.50;2.08;;;12.30;99.90;;;;;;5078245;28;20123;-56
2022/10/19 10:21:18;;;;;;;6.53;2.90;;;12.30;99.90;;;;;;5070446;28;20457;-56
2022/10/19 10:24:17;;;;;;;5.88;2.85;;;12.20;99.90;;;;;;5070842;28;20032;-57
2022/10/19 10:26:46;;;;;;;10.90;2.53;;;12.20;99.90;;;;;;5068493;28;20043;-56
2022/10/19 10:29:22;;;;;;;16.52;4.10;;;12.20;99.90;;;;;;5070148;28;20078;-56
2022/10/19 10:31:59;;;;;;;6.63;2.10;;;12.20;99.90;;;;;;5070615;28;20043;-56
2022/10/19 10:34:44;;;;;;;8.13;3.10;;;12.20;99.90;;;;;;5070328;28;20365;-56
2022/10/19 10:37:22;;;;;;;13.05;4.18;;;12.30;99.90;;;;;;5070155;28;20032;-57
2022/10/19 10:39:52;;;;;;;6.47;2.83;;;12.40;99.90;;;;;;5070440;28;20082;-57
2022/10/19 10:42:29;;;;;;;11.80;3.90;;;12.30;99.90;;;;;;5070131;28;20032;-56
2022/10/19 10:44:55;;;;;;;7.90;3.78;;;12.30;99.90;;;;;;5070622;28;20119;-57
2022/10/19 10:47:22;;;;;;;12.07;5.50;;;12.20;99.90;;;;;;5068514;28;20029;-57
2022/10/19 10:49:56;;;;;;;17.73;8.02;;;12.30;99.90;;;;;;5069955;28;20036;-57
2022/10/19 10:52:22;;;;;;;20.58;9.45;;;12.30;99.90;;;;;;5069774;28;20111;-56
2022/10/19 10:55:01;;;;;;;18.60;5.32;;;12.30;99.90;;;;;;5070209;28;20400;-57
2022/10/19 10:57:58;;;;;;;10.90;2.83;;;12.30;99.90;;;;;;5077845;28;20028;-56
2022/10/19 11:00:24;;;;;;;5.53;2.60;;;12.20;99.90;;;;;;5077677;28;20070;-57
2022/10/19 11:02:55;;;;;;;8.32;2.60;;;12.10;99.90;;;;;;5078488;28;20016;-56
2022/10/19 11:05:33;;;;;;;13.98;2.88;;;12.10;99.90;;;;;;5079127;28;20024;-57
2022/10/19 11:08:11;;;;;;;9.57;3.72;;;12.10;99.90;;;;;;5079138;28;20874;-57
2022/10/19 11:10:51;;;;;;;6.97;2.72;;;12.20;99.90;;;;;;5079252;28;20036;-57
2022/10/19 11:13:24;;;;;;;11.10;3.30;;;12.30;99.90;;;;;;5078905;28;20016;-57
2022/10/19 11:16:05;;;;;;;7.40;2.63;;;12.30;99.90;;;;;;5078223;28;20097;-58
2022/10/19 11:18:41;;;;;;;21.85;5.68;;;12.40;99.90;;;;;;5077895;28;20056;-56
2022/10/19 11:21:39;;;;;;;15.02;3.75;;;12.40;99.90;;;;;;5078419;28;20424;-57
2022/10/19 11:24:21;;;;;;;25.77;8.85;;;12.50;99.90;;;;;;5024955;28;20035;-57
2022/10/19 11:27:22;;;;;;;12.40;5.32;;;12.50;99.90;;;;;;5078120;28;20039;-57
2022/10/19 11:30:03;;;;;;;10.63;4.93;;;12.70;99.90;;;;;;5007679;28;20065;-57
2022/10/19 11:32:28;;;;;;;5.90;2.83;;;12.70;99.90;;;;;;5081310;28;20024;-57
2022/10/19 11:35:06;;;;;;;12.57;2.65;;;12.70;99.90;;;;;;5087141;28;20161;-56
2022/10/19 11:37:41;;;;;;;6.00;1.98;;;12.90;99.90;;;;;;5080552;28;20012;-55
2022/10/19 11:40:28;;;;;;;6.68;2.63;;;13.50;99.90;;;;;;5080961;28;20035;-57
2022/10/19 11:43:13;;;;;;;4.15;1.73;;;13.90;99.90;;;;;;5088941;28;20024;-56
2022/10/19 11:45:47;;;;;;;8.30;1.77;;;13.90;99.90;;;;;;5090299;28;20031;-56
2022/10/19 11:48:50;;;;;;;4.20;1.45;;;13.70;99.90;;;;;;5090039;28;20031;-56
2022/10/19 11:51:24;;;;;;;6.50;2.00;;;13.50;99.90;;;;;;5086860;28;20046;-55
2022/10/19 11:54:18;;;;;;;5.18;1.85;;;13.40;99.90;;;;;;5090063;28;20021;-56
2022/10/19 11:56:52;;;;;;;8.80;2.70;;;13.20;99.90;;;;;;5090007;28;20035;-57
2022/10/19 11:59:36;;;;;;;10.32;2.53;;;13.30;99.90;;;;;;5089681;28;20471;-57
2022/10/19 12:02:22;;;;;;;6.60;2.00;;;13.10;99.90;;;;;;5089910;28;20383;-57
2022/10/19 12:05:03;;;;;;;6.38;2.00;;;12.90;99.90;;;;;;5089933;28;20476;-56
2022/10/19 12:07:54;;;;;;;7.57;2.50;;;12.90;99.90;;;;;;5089866;28;20016;-56
2022/10/19 12:10:39;;;;;;;8.82;2.80;;;12.90;99.90;;;;;;5081489;28;20043;-56
2022/10/19 12:13:11;;;;;;;8.38;2.40;;;12.80;99.90;;;;;;5077067;28;20040;-57
2022/10/19 12:15:48;;;;;;;15.82;2.88;;;12.70;99.90;;;;;;5076851;28;20386;-56
2022/10/19 12:18:35;;;;;;;7.88;2.47;;;12.80;99.90;;;;;;5077778;28;20102;-56
2022/10/19 12:21:12;;;;;;;8.73;2.00;;;12.80;99.90;;;;;;5085635;28;20059;-57
2022/10/19 12:23:40;;;;;;;10.27;2.58;;;12.70;99.90;;;;;;5086209;28;20499;-55
2022/10/19 12:26:14;;;;;;;14.15;6.05;;;12.70;99.90;;;;;;5089804;28;20020;-54
2022/10/19 12:28:45;;;;;;;7.75;3.95;;;12.80;99.90;;;;;;5084994;28;20028;-56
2022/10/19 12:31:11;;;;;;;6.85;2.00;;;12.80;99.90;;;;;;5069428;28;20032;-56
2022/10/19 12:33:59;;;;;;;8.83;1.90;;;12.80;99.90;;;;;;5069813;28;20372;-56
2022/10/19 12:36:25;;;;;;;4.53;2.22;;;12.80;99.90;;;;;;5069624;28;20080;-56
2022/10/19 12:39:12;;;;;;;14.93;2.50;;;12.70;99.90;;;;;;5075194;28;20016;-56
2022/10/19 12:41:56;;;;;;;10.50;3.00;;;12.60;99.90;;;;;;5089391;28;20123;-56
2022/10/19 12:44:51;;;;;;;7.03;2.97;;;12.70;99.90;;;;;;5077080;28;20073;-55
2022/10/19 12:47:19;;;;;;;27.33;15.05;;;12.70;99.90;;;;;;5077597;28;20024;-58
2022/10/19 12:49:56;;;;;;;12.90;3.10;;;12.80;99.90;;;;;;5084532;28;20110;-56
2022/10/19 12:52:47;;;;;;;8.50;2.67;;;12.80;99.90;;;;;;5082207;28;20034;-57